Smithfield - 24 Hour Table
Date & TimeSolar
Radiation
(W/m²)
Wind
Speed
(mph)
Wind
Direction
(degrees)
Air
Temperature
(°F)
Relative
Humidity
(%)
Precipitation
(inches)
Max
Wind
Speed
(mph)
2022/05/21 02:00 0 9.6 105 42.6 37 0.00 19.6
2022/05/21 01:00 0 5.3 347 39.2 45 0.00 17.8
2022/05/21 00:00 0 4.1 19 37.4 72 0.00 8.8
2022/05/20 23:00 0 3.1 351 39.7 73 0.00 6.7
2022/05/20 22:00 0 4.1 31 40.6 53 0.00 7.8
2022/05/20 21:00 0 2.5 4 41.1 70 0.00 5.6
2022/05/20 20:00 52 4.3 185 43.6 65 0.00 8.1
2022/05/20 19:00 166 5.9 179 44.4 63 0.00 11.0
2022/05/20 18:00 120 6.3 167 45.1 60 0.00 14.6
2022/05/20 17:00 579 4.2 209 49.1 45 0.00 8.8
2022/05/20 16:00 341 6.0 163 43.9 51 0.00 21.4
2022/05/20 15:00 416 6.5 14 43.2 58 0.00 18.9
2022/05/20 14:00 209 7.0 86 40.8 79 0.00 17.1
2022/05/20 13:00 622 6.5 4 47.8 49 0.00 14.9
2022/05/20 12:00 806 7.7 353 46.9 46 0.00 18.9
2022/05/20 11:00 888 8.9 332 44.6 47 0.00 16.7
2022/05/20 10:00 719 8.5 349 41.7 57 0.00 17.4
2022/05/20 09:00 478 7.4 359 39.1 65 0.00 16.7
2022/05/20 08:00 177 4.8 353 36.7 61 0.00 11.4
2022/05/20 07:00 70 4.1 350 35.2 60 0.00 11.4
2022/05/20 06:00 23 1.8 58 31.8 64 0.00 4.6
2022/05/20 05:00 0 3.3 33 30.6 65 0.00 5.3
2022/05/20 04:00 0 3.4 36 33.4 59 0.00 7.8
2022/05/20 03:00 0 2.4 52 34.4 56 0.00 6.3